createdAt,value
2018-10-03T00:01:56.991Z,97958.21
2018-10-03T00:04:27.085Z,97956.28
2018-10-03T00:06:56.977Z,97953.50
2018-10-03T00:09:27.594Z,97956.28
2018-10-03T00:11:57.229Z,97948.38
2018-10-03T00:14:27.405Z,97944.30
2018-10-03T00:16:57.560Z,97941.11
2018-10-03T00:19:27.662Z,97929.75
2018-10-03T00:21:57.667Z,97930.95
2018-10-03T00:24:27.440Z,97923.95
2018-10-03T00:26:57.205Z,97915.68
2018-10-03T00:29:27.047Z,97915.58
2018-10-03T00:31:56.962Z,97907.26
2018-10-03T00:34:27.021Z,97917.88
2018-10-03T00:36:56.825Z,97912.05
2018-10-03T00:39:26.866Z,97914.84
2018-10-03T00:41:56.999Z,97909.05
2018-10-03T00:44:26.801Z,97907.08
2018-10-03T00:46:56.584Z,97903.80
2018-10-03T00:49:27.001Z,97895.52
2018-10-03T00:51:56.743Z,97896.00
2018-10-03T00:54:26.750Z,97894.38
2018-10-03T00:56:56.505Z,97886.38
2018-10-03T00:59:26.245Z,97890.04
2018-10-03T01:01:55.996Z,97886.96
2018-10-03T01:04:26.433Z,97883.53
2018-10-03T01:06:56.210Z,97889.18
2018-10-03T01:09:26.081Z,97882.22
2018-10-03T01:11:55.785Z,97887.03
2018-10-03T01:14:26.061Z,97889.30
2018-10-03T01:16:55.843Z,97890.52
2018-10-03T01:19:26.050Z,97884.53
2018-10-03T01:21:55.809Z,97885.70
2018-10-03T01:24:25.559Z,97890.37
2018-10-03T01:26:55.243Z,97897.66
2018-10-03T01:29:25.834Z,97897.06
2018-10-03T01:31:55.699Z,97903.09
2018-10-03T01:34:25.550Z,97902.89
2018-10-03T01:36:55.221Z,97901.80
2018-10-03T01:39:25.067Z,97905.16
2018-10-03T01:41:54.819Z,97902.33
2018-10-03T01:44:24.642Z,97896.53
2018-10-03T01:46:54.264Z,97894.83
2018-10-03T01:49:24.155Z,97883.80
2018-10-03T01:51:53.935Z,97885.70
2018-10-03T01:54:24.005Z,97882.71
2018-10-03T01:56:53.667Z,97881.18
2018-10-03T01:59:23.668Z,97881.71
2018-10-03T02:01:53.441Z,97886.71
2018-10-03T02:04:23.381Z,97884.58
2018-10-03T02:06:53.129Z,97881.78
2018-10-03T02:09:23.047Z,97877.19
2018-10-03T02:11:52.805Z,97884.03
2018-10-03T02:14:22.660Z,97887.03
2018-10-03T02:16:52.323Z,97892.48
2018-10-03T02:19:22.071Z,97895.88
2018-10-03T02:21:51.683Z,97891.52
2018-10-03T02:24:21.983Z,97889.95
2018-10-03T02:26:51.809Z,97894.06
2018-10-03T02:29:21.760Z,97897.50
2018-10-03T02:31:51.525Z,97899.47
2018-10-03T02:34:21.508Z,97909.48
2018-10-03T02:36:51.381Z,97912.70
2018-10-03T02:39:21.141Z,97918.63
2018-10-03T02:41:50.902Z,97926.33
2018-10-03T02:44:20.870Z,97927.40
2018-10-03T02:46:50.712Z,97921.25
2018-10-03T02:49:20.539Z,97917.72
2018-10-03T02:51:50.240Z,97916.23
2018-10-03T02:54:20.345Z,97916.49
2018-10-03T02:56:50.168Z,97922.92
2018-10-03T02:59:20.122Z,97921.45
2018-10-03T03:01:49.948Z,97924.94
2018-10-03T03:04:20.007Z,97926.94
2018-10-03T03:06:49.781Z,97932.23
2018-10-03T03:09:19.864Z,97938.27
2018-10-03T03:11:49.664Z,97931.43
2018-10-03T03:14:19.364Z,97927.23
2018-10-03T03:16:49.143Z,97940.66
2018-10-03T03:19:18.941Z,97945.37
2018-10-03T03:21:48.665Z,97952.19
2018-10-03T03:24:18.400Z,97949.91
2018-10-03T03:26:48.199Z,97952.25
2018-10-03T03:29:18.025Z,97965.04
2018-10-03T03:31:47.710Z,97958.09
2018-10-03T03:34:17.524Z,97955.63
2018-10-03T03:36:47.186Z,97954.20
2018-10-03T03:39:16.957Z,97961.73
2018-10-03T03:41:46.746Z,97962.77
2018-10-03T03:44:16.604Z,97961.75
2018-10-03T03:46:46.265Z,97966.73
2018-10-03T03:49:16.340Z,97965.17
2018-10-03T03:51:46.127Z,97972.54
2018-10-03T03:54:15.899Z,97970.98
2018-10-03T03:56:45.639Z,97970.53
2018-10-03T03:59:15.680Z,97980.47
2018-10-03T04:01:45.443Z,97977.99
2018-10-03T04:04:15.360Z,97977.58
2018-10-03T04:06:45.298Z,97989.34
2018-10-03T04:09:15.210Z,97978.70
2018-10-03T04:11:45.149Z,97977.45
2018-10-03T04:14:14.924Z,97977.91
2018-10-03T04:16:44.940Z,97982.83
2018-10-03T04:19:14.843Z,97982.45
2018-10-03T04:21:44.692Z,97986.91
2018-10-03T04:24:15.522Z,97978.86
2018-10-03T04:26:45.311Z,97975.41
2018-10-03T04:29:15.104Z,97968.97
2018-10-03T04:31:45.149Z,97973.74
2018-10-03T04:34:15.040Z,97969.07
2018-10-03T04:36:45.018Z,97967.50
2018-10-03T04:39:15.045Z,97965.09
2018-10-03T04:41:44.836Z,97968.09
2018-10-03T04:44:14.729Z,97970.19
2018-10-03T04:46:44.678Z,97966.73
2018-10-03T04:49:14.460Z,97973.78
2018-10-03T04:51:44.313Z,97974.55
2018-10-03T04:54:14.263Z,97972.93
2018-10-03T04:56:44.172Z,97968.02
2018-10-03T04:59:14.165Z,97969.44
2018-10-03T05:01:44.081Z,97971.38
2018-10-03T05:04:14.084Z,97969.95
2018-10-03T05:06:43.749Z,97970.95
2018-10-03T05:09:13.754Z,97981.86
2018-10-03T05:11:43.549Z,97982.74
2018-10-03T05:14:13.697Z,97983.25
2018-10-03T05:16:43.681Z,97996.49
2018-10-03T05:19:14.576Z,97997.84
2018-10-03T05:21:44.562Z,98003.14
2018-10-03T05:24:14.583Z,98003.98
2018-10-03T05:26:44.370Z,97994.27
2018-10-03T05:29:14.411Z,97993.05
2018-10-03T05:31:44.221Z,97989.84
2018-10-03T05:34:14.408Z,97987.27
2018-10-03T05:36:44.344Z,97998.02
2018-10-03T05:39:14.806Z,98000.55
2018-10-03T05:41:44.490Z,98002.57
2018-10-03T05:44:14.336Z,98003.25
2018-10-03T05:46:44.027Z,98004.13
2018-10-03T05:49:13.853Z,98002.05
2018-10-03T05:51:43.547Z,98003.67
2018-10-03T05:54:13.363Z,97994.55
2018-10-03T05:56:43.074Z,97999.36
2018-10-03T05:59:12.879Z,97997.91
2018-10-03T06:01:42.567Z,98001.63
2018-10-03T06:04:12.340Z,98007.33
2018-10-03T06:06:42.009Z,98008.86
2018-10-03T06:09:13.471Z,98005.46
2018-10-03T06:11:43.935Z,97995.55
2018-10-03T06:14:13.706Z,98003.91
2018-10-03T06:16:43.505Z,97998.38
2018-10-03T06:19:13.232Z,97995.94
2018-10-03T06:21:43.040Z,98001.29
2018-10-03T06:24:12.799Z,98002.39
2018-10-03T06:26:42.724Z,98000.89
2018-10-03T06:29:12.645Z,98003.28
2018-10-03T06:31:42.626Z,98007.55
2018-10-03T06:34:12.429Z,98011.33
2018-10-03T06:36:42.389Z,98002.92
2018-10-03T06:39:12.352Z,98006.88
2018-10-03T06:41:42.740Z,98002.17
2018-10-03T06:44:12.965Z,98010.03
2018-10-03T06:46:42.815Z,98010.95
2018-10-03T06:49:13.655Z,98008.25
2018-10-03T06:51:43.523Z,98002.98
2018-10-03T06:54:14.916Z,98008.92
2018-10-03T06:56:44.650Z,98006.62
2018-10-03T06:59:15.512Z,98003.90
2018-10-03T07:01:45.299Z,98010.19
2018-10-03T07:04:16.817Z,98003.11
2018-10-03T07:06:46.647Z,98009.34
2018-10-03T07:09:17.444Z,98003.89
2018-10-03T07:11:47.264Z,98001.65
2018-10-03T07:14:18.730Z,98000.98
2018-10-03T07:16:48.524Z,98003.20
2018-10-03T07:19:19.271Z,98005.30
2018-10-03T07:21:49.271Z,97997.83
2018-10-03T07:24:20.823Z,97999.72
2018-10-03T07:26:50.737Z,97998.69
2018-10-03T07:29:22.189Z,97997.17
2018-10-03T07:31:51.999Z,97989.59
2018-10-03T07:34:21.757Z,98003.02
2018-10-03T07:36:51.739Z,97999.34
2018-10-03T07:39:22.179Z,97999.41
2018-10-03T07:41:52.036Z,98007.67
2018-10-03T07:44:21.811Z,98008.47
2018-10-03T07:46:51.707Z,98006.70
2018-10-03T07:49:21.429Z,98012.73
2018-10-03T07:51:51.222Z,98017.22
2018-10-03T07:54:21.061Z,98013.91
2018-10-03T07:56:51.297Z,98008.45
2018-10-03T07:59:21.147Z,98005.55
2018-10-03T08:01:51.100Z,98004.97
2018-10-03T08:04:21.007Z,98005.85
2018-10-03T08:06:51.138Z,98002.05
2018-10-03T08:09:20.885Z,98006.33
2018-10-03T08:11:51.239Z,98013.39
2018-10-03T08:14:21.034Z,98013.10
2018-10-03T08:16:50.893Z,98009.38
2018-10-03T08:19:20.706Z,98017.47
2018-10-03T08:21:50.562Z,98012.16
2018-10-03T08:24:20.391Z,98008.41
2018-10-03T08:26:50.568Z,98001.77
2018-10-03T08:29:20.530Z,98002.46
2018-10-03T08:31:50.261Z,97992.97
2018-10-03T08:34:19.869Z,97998.36
2018-10-03T08:36:49.654Z,97995.91
2018-10-03T08:39:19.338Z,97997.44
2018-10-03T08:41:49.122Z,97991.15
2018-10-03T08:44:19.069Z,97991.69
2018-10-03T08:46:48.832Z,97986.73
2018-10-03T08:49:18.648Z,97990.45
2018-10-03T08:51:48.707Z,97993.88
2018-10-03T08:54:18.557Z,97997.06
2018-10-03T08:56:48.506Z,97996.42
2018-10-03T08:59:18.248Z,97993.98
2018-10-03T09:01:48.108Z,97994.30
2018-10-03T09:04:17.800Z,97986.97
2018-10-03T09:06:47.537Z,97988.81
2018-10-03T09:09:17.318Z,97992.21
2018-10-03T09:11:47.149Z,97982.66
2018-10-03T09:14:17.144Z,97986.61
2018-10-03T09:16:47.162Z,97989.73
2018-10-03T09:19:16.937Z,97986.02
2018-10-03T09:21:46.865Z,97988.02
2018-10-03T09:24:16.794Z,97976.02
2018-10-03T09:26:46.876Z,97983.31
2018-10-03T09:29:16.669Z,97975.86
2018-10-03T09:31:46.885Z,97979.20
2018-10-03T09:34:17.160Z,97978.30
2018-10-03T09:36:47.223Z,97975.73
2018-10-03T09:39:17.082Z,97979.31
2018-10-03T09:41:47.040Z,97985.41
2018-10-03T09:44:16.843Z,97987.34
2018-10-03T09:46:46.739Z,97983.39
2018-10-03T09:49:16.739Z,97982.31
2018-10-03T09:51:47.140Z,97985.84
2018-10-03T09:54:16.972Z,97984.14
2018-10-03T09:56:46.741Z,97982.39
2018-10-03T09:59:16.844Z,97986.80
2018-10-03T10:01:46.728Z,97986.36
2018-10-03T10:04:16.585Z,97983.22
2018-10-03T10:06:46.891Z,97980.75
2018-10-03T10:09:16.687Z,97977.30
2018-10-03T10:11:46.479Z,97982.31
2018-10-03T10:14:16.176Z,97981.08
2018-10-03T10:16:46.086Z,97984.95
2018-10-03T10:19:15.886Z,97974.86
2018-10-03T10:21:45.736Z,97978.04
2018-10-03T10:24:15.646Z,97972.96
2018-10-03T10:26:45.580Z,97967.91
2018-10-03T10:29:15.581Z,97962.62
2018-10-03T10:31:45.726Z,97966.93
2018-10-03T10:34:15.462Z,97963.93
2018-10-03T10:36:45.360Z,97970.73
2018-10-03T10:39:15.250Z,97963.53
2018-10-03T10:41:45.088Z,97959.63
2018-10-03T10:44:14.997Z,97969.81
2018-10-03T10:46:45.004Z,97970.30
2018-10-03T10:49:15.509Z,97965.95
2018-10-03T10:51:45.359Z,97964.24
2018-10-03T10:54:15.561Z,97957.00
2018-10-03T10:56:45.324Z,97951.16
2018-10-03T10:59:15.167Z,97948.02
2018-10-03T11:01:44.901Z,97949.92
2018-10-03T11:04:14.579Z,97947.47
2018-10-03T11:06:44.633Z,97942.17
2018-10-03T11:09:14.498Z,97940.22
2018-10-03T11:11:44.361Z,97935.20
2018-10-03T11:14:14.258Z,97931.45
2018-10-03T11:16:44.370Z,97924.02
2018-10-03T11:19:14.290Z,97924.70
2018-10-03T11:21:44.279Z,97920.97
2018-10-03T11:24:14.443Z,97916.23
2018-10-03T11:26:44.033Z,97912.11
2018-10-03T11:29:14.389Z,97904.98
2018-10-03T11:31:44.227Z,97903.27
2018-10-03T11:34:14.005Z,97903.69
2018-10-03T11:36:43.880Z,97904.82
2018-10-03T11:39:13.535Z,97903.40
2018-10-03T11:41:43.371Z,97904.05
2018-10-03T11:44:12.988Z,97904.80
2018-10-03T11:46:43.057Z,97895.27
2018-10-03T11:49:12.731Z,97888.94
2018-10-03T11:51:42.473Z,97877.93
2018-10-03T11:54:12.435Z,97877.23
2018-10-03T11:56:42.440Z,97877.06
2018-10-03T11:59:12.173Z,97877.36
2018-10-03T12:01:42.234Z,97872.63
2018-10-03T12:04:12.297Z,97873.38
2018-10-03T12:06:42.347Z,97870.36
2018-10-03T12:09:13.899Z,97871.03
2018-10-03T12:11:44.181Z,97866.27
2018-10-03T12:14:14.040Z,97859.14
2018-10-03T12:16:43.711Z,97858.84
2018-10-03T12:19:13.465Z,97850.73
2018-10-03T12:21:43.624Z,97852.74
2018-10-03T12:24:13.399Z,97849.98
2018-10-03T12:26:43.390Z,97857.14
2018-10-03T12:29:13.625Z,97854.35
2018-10-03T12:31:43.566Z,97847.24
2018-10-03T12:34:13.529Z,97846.88
2018-10-03T12:36:43.305Z,97850.31
2018-10-03T12:39:12.965Z,97843.85
2018-10-03T12:41:42.910Z,97844.05
2018-10-03T12:44:12.998Z,97852.26
2018-10-03T12:46:42.835Z,97848.16
2018-10-03T12:49:12.497Z,97845.09
2018-10-03T12:51:42.279Z,97852.81
2018-10-03T12:54:12.248Z,97845.28
2018-10-03T12:56:42.069Z,97851.45
2018-10-03T12:59:11.897Z,97851.59
2018-10-03T13:01:41.986Z,97854.59
2018-10-03T13:04:11.713Z,97854.13
2018-10-03T13:06:41.528Z,97852.23
2018-10-03T13:09:14.387Z,97858.77
2018-10-03T13:11:44.828Z,97854.73
2018-10-03T13:14:15.587Z,97851.61
2018-10-03T13:16:45.351Z,97857.73
2018-10-03T13:19:15.101Z,97853.25
2018-10-03T13:21:44.892Z,97859.33
2018-10-03T13:24:14.631Z,97858.87
2018-10-03T13:26:44.425Z,97852.63
2018-10-03T13:29:14.249Z,97855.17
2018-10-03T13:31:44.166Z,97843.28
2018-10-03T13:34:13.948Z,97840.48
2018-10-03T13:36:44.014Z,97843.13
2018-10-03T13:39:13.772Z,97834.97
2018-10-03T13:41:43.628Z,97838.89
2018-10-03T13:44:13.390Z,97842.02
2018-10-03T13:46:43.137Z,97837.88
2018-10-03T13:49:12.882Z,97841.30
2018-10-03T13:51:42.820Z,97839.52
2018-10-03T13:54:12.695Z,97833.89
2018-10-03T13:56:42.896Z,97840.27
2018-10-03T13:59:12.653Z,97840.85
2018-10-03T14:01:42.625Z,97842.47
2018-10-03T14:04:12.660Z,97843.14
2018-10-03T14:06:42.748Z,97845.64
2018-10-03T14:09:12.984Z,97838.94
2018-10-03T14:11:43.014Z,97846.44
2018-10-03T14:14:12.840Z,97843.72
2018-10-03T14:16:42.773Z,97841.53
2018-10-03T14:19:12.645Z,97836.61
2018-10-03T14:21:43.313Z,97843.73
2018-10-03T14:24:13.103Z,97847.37
2018-10-03T14:26:43.162Z,97852.27
2018-10-03T14:29:12.851Z,97845.38
2018-10-03T14:31:42.656Z,97849.94
2018-10-03T14:34:22.765Z,97850.74
2018-10-03T14:36:52.972Z,97860.84
2018-10-03T14:39:22.624Z,97858.49
2018-10-03T14:41:52.686Z,97856.70
2018-10-03T14:44:22.219Z,97851.09
2018-10-03T14:46:51.898Z,97861.20
2018-10-03T14:49:21.546Z,97870.84
2018-10-03T14:51:51.320Z,97868.60
2018-10-03T14:54:21.097Z,97867.98
2018-10-03T14:56:50.892Z,97869.06
2018-10-03T14:59:20.571Z,97874.44
2018-10-03T15:01:50.233Z,97858.72
2018-10-03T15:04:19.891Z,97857.96
2018-10-03T15:06:50.790Z,97861.30
2018-10-03T15:09:20.361Z,97865.05
2018-10-03T15:11:50.037Z,97876.35
2018-10-03T15:14:19.612Z,97880.98
2018-10-03T15:16:51.106Z,97893.35
2018-10-03T15:19:20.787Z,97888.91
2018-10-03T15:21:51.532Z,97882.35
2018-10-03T15:24:21.260Z,97890.16
2018-10-03T15:26:52.698Z,97881.86
2018-10-03T15:29:22.352Z,97880.18
2018-10-03T15:31:53.612Z,97873.67
2018-10-03T15:34:23.282Z,97881.33
2018-10-03T15:36:54.156Z,97879.27
2018-10-03T15:39:23.849Z,97889.91
2018-10-03T15:41:54.277Z,97889.18
2018-10-03T15:44:24.105Z,97896.78
2018-10-03T15:46:53.681Z,97897.45
2018-10-03T15:49:23.371Z,97896.33
2018-10-03T15:51:53.042Z,97894.60
2018-10-03T15:54:22.923Z,97889.48
2018-10-03T15:56:52.438Z,97893.74
2018-10-03T15:59:22.063Z,97898.89
2018-10-03T16:01:51.701Z,97901.37
2018-10-03T16:04:21.386Z,97909.81
2018-10-03T16:06:50.993Z,97917.16
2018-10-03T16:09:20.775Z,97917.04
2018-10-03T16:11:51.041Z,97923.75
2018-10-03T16:14:20.769Z,97917.26
2018-10-03T16:16:50.575Z,97917.83
2018-10-03T16:19:20.297Z,97929.64
2018-10-03T16:21:49.908Z,97933.72
2018-10-03T16:24:19.567Z,97943.52
2018-10-03T16:26:49.290Z,97950.05
2018-10-03T16:29:19.684Z,97954.12
2018-10-03T16:31:49.289Z,97956.67
2018-10-03T16:34:19.099Z,97973.30
2018-10-03T16:36:48.630Z,97975.52
2018-10-03T16:39:18.383Z,97981.98
2018-10-03T16:41:48.073Z,97980.58
2018-10-03T16:44:17.742Z,97990.64
2018-10-03T16:46:47.970Z,98003.89
2018-10-03T16:49:17.666Z,98006.68
2018-10-03T16:51:48.269Z,98016.89
2018-10-03T16:54:18.066Z,98017.76
2018-10-03T16:56:47.626Z,98009.61
2018-10-03T16:59:17.327Z,98017.34
2018-10-03T17:01:46.927Z,98020.94
2018-10-03T17:04:16.832Z,98024.14
2018-10-03T17:06:46.873Z,98025.12
2018-10-03T17:09:16.764Z,98042.48
2018-10-03T17:11:46.391Z,98047.72
2018-10-03T17:14:31.033Z,98053.45
2018-10-03T17:17:00.680Z,98049.06
2018-10-03T17:19:30.413Z,98055.48
2018-10-03T17:22:00.855Z,98050.44
2018-10-03T17:24:34.231Z,98048.58
2018-10-03T17:27:05.496Z,98051.80
2018-10-03T17:29:36.002Z,98060.22
2018-10-03T17:32:05.782Z,98065.47
2018-10-03T17:34:37.226Z,98063.50
2018-10-03T17:37:07.026Z,98064.34
2018-10-03T17:39:38.119Z,98062.38
2018-10-03T17:42:07.860Z,98067.77
2018-10-03T17:44:38.267Z,98073.61
2018-10-03T17:47:08.026Z,98082.41
2018-10-03T17:49:37.807Z,98084.48
2018-10-03T17:52:07.544Z,98092.39
2018-10-03T17:54:37.321Z,98090.37
2018-10-03T17:57:07.569Z,98098.20
2018-10-03T17:59:37.418Z,98104.70
2018-10-03T18:02:09.396Z,98108.28
2018-10-03T18:04:39.845Z,98101.34
2018-10-03T18:07:09.621Z,98099.60
2018-10-03T18:09:39.714Z,98103.75
2018-10-03T18:12:09.851Z,98118.34
2018-10-03T18:14:40.213Z,98123.27
2018-10-03T18:17:10.032Z,98129.34
2018-10-03T18:19:39.993Z,98137.39
2018-10-03T18:22:09.752Z,98132.80
2018-10-03T18:24:39.531Z,98142.70
2018-10-03T18:27:09.294Z,98146.91
2018-10-03T18:29:39.053Z,98145.22
2018-10-03T18:32:09.483Z,98151.69
2018-10-03T18:34:39.443Z,98162.79
2018-10-03T18:37:09.336Z,98163.55
2018-10-03T18:39:39.601Z,98170.75
2018-10-03T18:42:09.427Z,98177.81
2018-10-03T18:44:39.217Z,98178.14
2018-10-03T18:47:08.895Z,98182.02
2018-10-03T18:49:39.025Z,98185.77
2018-10-03T18:52:09.676Z,98192.27
2018-10-03T18:54:39.944Z,98195.69
2018-10-03T18:57:09.671Z,98196.38
2018-10-03T18:59:40.253Z,98211.11
2018-10-03T19:02:10.150Z,98212.11
2018-10-03T19:04:39.961Z,98218.66
2018-10-03T19:07:09.906Z,98219.16
2018-10-03T19:09:39.682Z,98225.50
2018-10-03T19:12:09.542Z,98227.85
2018-10-03T19:14:39.425Z,98237.45
2018-10-03T19:17:09.122Z,98230.78
2018-10-03T19:19:39.355Z,98246.78
2018-10-03T19:22:09.142Z,98252.72
2018-10-03T19:24:38.955Z,98253.22
2018-10-03T19:27:09.068Z,98259.48
2018-10-03T19:29:39.106Z,98265.97
2018-10-03T19:32:08.839Z,98269.64
2018-10-03T19:34:38.852Z,98282.48
2018-10-03T19:37:08.642Z,98277.04
2018-10-03T19:39:38.479Z,98280.48
2018-10-03T19:42:08.529Z,98286.63
2018-10-03T19:44:38.296Z,98289.47
2018-10-03T19:47:08.044Z,98295.55
2018-10-03T19:49:38.108Z,98307.36
2018-10-03T19:52:08.280Z,98317.59
2018-10-03T19:54:39.040Z,98313.76
2018-10-03T19:57:09.083Z,98329.44
2018-10-03T19:59:39.400Z,98332.52
2018-10-03T20:02:09.752Z,98333.17
2018-10-03T20:04:40.431Z,98335.52
2018-10-03T20:07:10.271Z,98337.94
2018-10-03T20:09:40.519Z,98339.12
2018-10-03T20:12:10.483Z,98343.42
2018-10-03T20:14:40.480Z,98352.78
2018-10-03T20:17:10.285Z,98348.88
2018-10-03T20:19:40.204Z,98349.72
2018-10-03T20:22:12.416Z,98352.72
2018-10-03T20:24:42.255Z,98352.78
2018-10-03T20:27:12.984Z,98357.73
2018-10-03T20:29:42.913Z,98361.95
2018-10-03T20:32:12.784Z,98372.24
2018-10-03T20:34:42.798Z,98372.77
2018-10-03T20:37:13.064Z,98382.12
2018-10-03T20:39:43.208Z,98383.48
2018-10-03T20:42:12.989Z,98382.30
2018-10-03T20:44:42.811Z,98387.63
2018-10-03T20:47:12.812Z,98388.68
2018-10-03T20:49:43.260Z,98396.20
2018-10-03T20:52:13.267Z,98397.53
2018-10-03T20:54:44.090Z,98396.16
2018-10-03T20:57:13.786Z,98402.36
2018-10-03T20:59:43.756Z,98409.45
2018-10-03T21:02:13.641Z,98410.28
2018-10-03T21:04:43.394Z,98407.86
2018-10-03T21:07:13.220Z,98403.78
2018-10-03T21:09:43.029Z,98394.27
2018-10-03T21:12:12.747Z,98400.11
2018-10-03T21:14:43.082Z,98409.85
2018-10-03T21:17:12.802Z,98412.16
2018-10-03T21:19:42.966Z,98415.75
2018-10-03T21:22:12.828Z,98425.28
2018-10-03T21:24:42.717Z,98418.26
2018-10-03T21:27:12.513Z,98419.47
2018-10-03T21:29:42.631Z,98425.65
2018-10-03T21:32:12.400Z,98422.34
2018-10-03T21:34:42.301Z,98415.66
2018-10-03T21:37:12.176Z,98424.03
2018-10-03T21:39:42.073Z,98429.28
2018-10-03T21:42:11.899Z,98427.73
2018-10-03T21:44:41.782Z,98430.07
2018-10-03T21:47:11.530Z,98428.20
2018-10-03T21:49:41.629Z,98429.12
2018-10-03T21:52:11.444Z,98426.41
2018-10-03T21:54:41.370Z,98422.02
2018-10-03T21:57:11.136Z,98426.41
2018-10-03T21:59:41.266Z,98435.00
2018-10-03T22:02:11.088Z,98436.57
2018-10-03T22:04:41.147Z,98441.88
2018-10-03T22:07:10.750Z,98442.77
2018-10-03T22:09:40.785Z,98436.38
2018-10-03T22:12:10.585Z,98436.33
2018-10-03T22:14:40.493Z,98433.56
2018-10-03T22:17:15.145Z,98444.37
2018-10-03T22:19:45.144Z,98439.73
2018-10-03T22:22:14.891Z,98440.68
2018-10-03T22:24:44.806Z,98432.10
2018-10-03T22:27:14.748Z,98436.84
2018-10-03T22:29:45.422Z,98434.19
2018-10-03T22:32:15.107Z,98437.98
2018-10-03T22:34:44.842Z,98447.86
2018-10-03T22:37:14.748Z,98439.33
2018-10-03T22:39:44.591Z,98441.52
2018-10-03T22:42:14.273Z,98444.17
2018-10-03T22:44:44.396Z,98440.73
2018-10-03T22:47:14.128Z,98449.16
2018-10-03T22:49:44.026Z,98453.67
2018-10-03T22:52:13.863Z,98451.13
2018-10-03T22:54:43.687Z,98453.55
2018-10-03T22:57:13.386Z,98456.00
2018-10-03T22:59:43.251Z,98451.77
2018-10-03T23:02:12.970Z,98448.89
2018-10-03T23:04:42.944Z,98448.41
2018-10-03T23:07:12.814Z,98446.65
2018-10-03T23:09:42.602Z,98445.25
2018-10-03T23:12:12.626Z,98443.95
2018-10-03T23:14:42.451Z,98453.87
2018-10-03T23:17:12.215Z,98460.88
2018-10-03T23:19:42.221Z,98455.64
2018-10-03T23:22:12.121Z,98470.48
2018-10-03T23:24:42.080Z,98467.59
2018-10-03T23:27:11.872Z,98468.61
2018-10-03T23:29:41.967Z,98474.97
2018-10-03T23:32:11.711Z,98471.22
2018-10-03T23:34:42.091Z,98473.20
2018-10-03T23:37:11.841Z,98475.17
2018-10-03T23:39:41.601Z,98481.41
2018-10-03T23:42:11.351Z,98484.06
2018-10-03T23:44:41.004Z,98484.30
2018-10-03T23:47:10.868Z,98492.38
2018-10-03T23:49:40.645Z,98500.04
2018-10-03T23:52:10.745Z,98501.94
2018-10-03T23:54:40.580Z,98504.41
2018-10-03T23:57:10.148Z,98501.77
2018-10-03T23:59:40.070Z,98498.79
